Time;durP1;ratioP1;P1;durP2;ratioP2;P2;SDS_P1;SDS_P2;PMS_P1;PMS_P2;Temp;Humidity;BMP_temperature;BMP_pressure;BME280_temperature;BME280_humidity;BME280_pressure;Samples;Min_cycle;Max_cycle;Signal;HPM_P1;HPM_P2
2020/12/01 00:01:12;;;;;;;3.38;1.92;;;26.70;53.90;;;;;;5062674;28;20036;-39
2020/12/01 00:03:40;;;;;;;4.90;2.80;;;26.80;54.10;;;;;;5060856;28;20113;-40
2020/12/01 00:06:08;;;;;;;3.63;2.25;;;26.80;53.90;;;;;;5065312;28;20414;-41
2020/12/01 00:08:39;;;;;;;4.75;2.25;;;26.80;53.60;;;;;;5060930;28;20032;-41
2020/12/01 00:11:07;;;;;;;3.28;2.22;;;26.80;53.70;;;;;;5063514;28;20139;-41
2020/12/01 00:13:35;;;;;;;4.65;1.98;;;26.90;53.90;;;;;;5061096;28;20102;-40
2020/12/01 00:16:02;;;;;;;2.85;2.15;;;26.90;53.70;;;;;;5061951;28;20037;-40
2020/12/01 00:18:29;;;;;;;4.22;2.25;;;26.90;54.10;;;;;;5061553;28;20673;-41
2020/12/01 00:20:56;;;;;;;3.35;2.15;;;26.90;53.80;;;;;;5064797;28;20020;-40
2020/12/01 00:23:23;;;;;;;3.63;2.15;;;26.90;54.10;;;;;;5060218;28;20487;-40
2020/12/01 00:25:50;;;;;;;2.50;1.83;;;26.90;54.10;;;;;;5063187;28;20056;-41
2020/12/01 00:28:17;;;;;;;3.97;1.98;;;26.90;53.80;;;;;;5057532;28;20059;-40
2020/12/01 00:30:44;;;;;;;2.45;2.05;;;27.00;53.90;;;;;;5063927;28;20036;-41
2020/12/01 00:33:12;;;;;;;4.53;2.03;;;27.00;53.90;;;;;;5061412;28;20040;-42
2020/12/01 00:35:39;;;;;;;2.15;1.95;;;27.00;53.80;;;;;;5061432;28;20140;-41
2020/12/01 00:38:06;;;;;;;5.15;2.33;;;27.10;53.80;;;;;;5060678;28;20024;-40
2020/12/01 00:40:33;;;;;;;4.40;2.42;;;27.00;53.70;;;;;;5061297;28;20890;-41
2020/12/01 00:43:00;;;;;;;3.30;2.30;;;27.10;53.80;;;;;;5064207;28;20101;-41
2020/12/01 00:45:27;;;;;;;3.45;1.70;;;27.10;53.60;;;;;;5042411;28;20120;-40
2020/12/01 00:47:55;;;;;;;2.65;2.08;;;27.00;53.60;;;;;;5062172;28;20059;-43
2020/12/01 00:50:25;;;;;;;2.72;2.47;;;27.00;53.70;;;;;;5062484;28;20094;-40
2020/12/01 00:52:52;;;;;;;3.63;2.20;;;27.00;54.30;;;;;;5060190;28;20032;-40
2020/12/01 00:55:19;;;;;;;3.35;1.83;;;27.00;53.80;;;;;;5060874;28;20032;-42
2020/12/01 00:57:50;;;;;;;3.30;2.08;;;27.10;53.80;;;;;;5065033;28;20419;-40
2020/12/01 01:00:18;;;;;;;;;;;27.10;53.80;;;;;;5065985;28;20037;-45
2020/12/01 01:02:45;;;;;;;1.80;1.70;;;27.10;53.90;;;;;;5073681;28;20036;-39
2020/12/01 01:05:13;;;;;;;3.17;2.08;;;27.10;53.50;;;;;;5071862;28;20027;-38
2020/12/01 01:07:43;;;;;;;2.78;2.05;;;27.10;53.70;;;;;;5071289;28;20087;-39
2020/12/01 01:10:16;;;;;;;2.63;1.80;;;27.10;53.50;;;;;;5069956;28;20035;-41
2020/12/01 01:12:43;;;;;;;2.47;1.88;;;27.10;53.70;;;;;;5078761;28;20278;-39
2020/12/01 01:15:11;;;;;;;3.67;2.53;;;27.10;53.40;;;;;;5062128;28;20157;-39
2020/12/01 01:17:38;;;;;;;3.67;2.08;;;27.10;53.50;;;;;;5069190;28;20108;-38
2020/12/01 01:20:08;;;;;;;2.67;1.88;;;27.10;53.50;;;;;;5080048;28;20035;-41
2020/12/01 01:22:35;;;;;;;3.30;2.03;;;27.10;53.50;;;;;;5072369;28;20036;-38
2020/12/01 01:25:02;;;;;;;4.53;2.33;;;27.10;53.40;;;;;;5056218;28;20032;-38
2020/12/01 01:27:29;;;;;;;3.10;2.00;;;27.20;53.50;;;;;;5069157;28;20044;-38
2020/12/01 01:29:56;;;;;;;2.50;1.90;;;27.10;53.20;;;;;;5079330;28;20029;-38
2020/12/01 01:32:23;;;;;;;1.95;1.77;;;27.20;53.50;;;;;;5063776;28;20518;-38
2020/12/01 01:34:50;;;;;;;2.95;1.48;;;27.20;53.40;;;;;;5063266;28;20057;-40
2020/12/01 01:37:17;;;;;;;3.70;2.28;;;27.10;53.20;;;;;;5063680;28;20028;-38
2020/12/01 01:39:44;;;;;;;5.32;1.90;;;27.20;53.30;;;;;;5069212;28;20092;-38
2020/12/01 01:42:12;;;;;;;3.85;1.65;;;27.10;53.10;;;;;;5068662;28;20122;-39
2020/12/01 01:44:39;;;;;;;3.70;1.83;;;27.10;53.40;;;;;;5073257;28;20093;-39
2020/12/01 01:47:35;;;;;;;2.80;1.80;;;27.10;53.40;;;;;;5068881;28;20480;-40
2020/12/01 01:50:03;;;;;;;2.55;2.08;;;27.10;53.30;;;;;;5050590;28;20123;-39
2020/12/01 01:52:36;;;;;;;2.10;1.90;;;27.10;53.50;;;;;;5065936;28;20135;-40
2020/12/01 01:55:13;;;;;;;6.40;2.78;;;27.10;53.50;;;;;;5066635;28;20068;-46
2020/12/01 01:57:48;;;;;;;2.33;1.70;;;27.10;53.40;;;;;;5064406;28;20060;-40
2020/12/01 02:00:41;;;;;;;2.03;1.65;;;27.10;53.40;;;;;;5066289;28;20048;-41
2020/12/01 02:03:08;;;;;;;2.13;1.95;;;27.10;53.10;;;;;;5063154;28;20061;-41
2020/12/01 02:05:35;;;;;;;2.88;1.55;;;27.10;53.10;;;;;;5066896;28;20225;-40
2020/12/01 02:08:02;;;;;;;2.78;1.85;;;27.10;53.10;;;;;;5065025;28;20576;-41
2020/12/01 02:10:29;;;;;;;1.98;1.88;;;27.10;53.40;;;;;;5071915;28;20028;-40
2020/12/01 02:13:00;;;;;;;2.90;2.13;;;27.10;53.10;;;;;;5063351;28;20052;-44
2020/12/01 02:15:28;;;;;;;2.05;1.58;;;27.00;53.20;;;;;;5065969;28;20130;-42
2020/12/01 02:17:55;;;;;;;3.05;2.03;;;27.10;53.20;;;;;;5064527;28;20079;-44
2020/12/01 02:20:23;;;;;;;3.42;1.85;;;27.10;53.20;;;;;;5066110;28;20301;-43
2020/12/01 02:22:54;;;;;;;2.75;1.65;;;27.10;53.20;;;;;;5063921;28;20033;-39
2020/12/01 02:25:22;;;;;;;3.33;1.92;;;27.10;53.00;;;;;;5066073;28;20264;-39
2020/12/01 02:27:56;;;;;;;1.88;1.48;;;27.10;53.00;;;;;;5062023;28;20035;-38
2020/12/01 02:30:23;;;;;;;2.78;1.88;;;27.10;52.80;;;;;;5064227;28;20037;-39
2020/12/01 02:32:51;;;;;;;2.05;1.77;;;27.10;53.10;;;;;;5065643;28;20017;-39
2020/12/01 02:35:18;;;;;;;1.73;1.63;;;27.10;53.20;;;;;;5060653;28;20123;-39
2020/12/01 02:37:46;;;;;;;2.55;1.60;;;27.20;53.10;;;;;;5061214;28;20031;-39
2020/12/01 02:40:17;;;;;;;2.95;1.85;;;27.20;53.00;;;;;;5058199;28;20036;-44
2020/12/01 02:42:45;;;;;;;3.03;1.37;;;27.20;53.00;;;;;;5061556;28;20112;-40
2020/12/01 02:45:12;;;;;;;2.13;1.63;;;27.30;52.80;;;;;;5058433;28;20312;-39
2020/12/01 02:47:39;;;;;;;4.15;1.90;;;27.30;52.70;;;;;;5060885;28;20036;-40
2020/12/01 02:50:06;;;;;;;2.72;1.25;;;27.30;52.70;;;;;;5065697;28;20070;-40
2020/12/01 02:52:33;;;;;;;1.60;1.50;;;27.30;52.80;;;;;;5070049;28;20470;-44
2020/12/01 02:55:01;;;;;;;2.10;1.63;;;27.20;52.70;;;;;;5064790;28;20035;-39
2020/12/01 02:57:28;;;;;;;1.95;1.58;;;27.30;52.40;;;;;;5063518;28;20703;-44
2020/12/01 02:59:55;;;;;;;2.55;1.50;;;27.30;52.50;;;;;;5058026;28;20074;-41
2020/12/01 03:02:22;;;;;;;7.00;1.88;;;27.30;52.50;;;;;;5069886;28;20235;-38
2020/12/01 03:04:49;;;;;;;2.83;1.90;;;27.30;53.30;;;;;;5042392;28;20028;-40
2020/12/01 03:07:16;;;;;;;3.22;1.52;;;27.30;52.30;;;;;;5060399;28;20024;-40
2020/12/01 03:09:43;;;;;;;2.58;1.60;;;27.30;52.30;;;;;;5057395;28;20087;-43
2020/12/01 03:12:10;;;;;;;2.08;1.30;;;27.30;52.80;;;;;;5065482;28;20043;-40
2020/12/01 03:14:37;;;;;;;5.03;1.50;;;27.30;52.60;;;;;;5075538;28;20024;-43
2020/12/01 03:17:04;;;;;;;2.10;1.60;;;27.30;53.10;;;;;;5056622;28;20037;-42
2020/12/01 03:19:31;;;;;;;1.52;1.33;;;27.30;52.50;;;;;;5060669;28;20506;-40
2020/12/01 03:21:58;;;;;;;2.67;1.48;;;27.30;52.80;;;;;;5071393;28;20086;-40
2020/12/01 03:24:25;;;;;;;1.42;1.23;;;27.30;52.60;;;;;;5059432;28;20095;-40
2020/12/01 03:26:52;;;;;;;2.25;1.42;;;27.30;52.80;;;;;;5056453;28;20115;-40
2020/12/01 03:29:19;;;;;;;2.50;1.58;;;27.40;52.50;;;;;;5058335;28;20122;-41
2020/12/01 03:31:46;;;;;;;1.70;1.20;;;27.40;52.50;;;;;;5056889;28;20024;-41
2020/12/01 03:34:13;;;;;;;2.67;1.67;;;27.30;52.50;;;;;;5060431;28;20029;-39
2020/12/01 03:36:40;;;;;;;3.17;1.90;;;27.30;52.50;;;;;;5056419;28;20027;-39
2020/12/01 03:39:07;;;;;;;2.40;1.50;;;27.20;52.80;;;;;;5058118;28;20503;-39
2020/12/01 03:41:34;;;;;;;1.92;1.65;;;27.30;52.60;;;;;;5056951;28;20024;-40
2020/12/01 03:44:01;;;;;;;3.42;1.85;;;27.20;52.50;;;;;;5060035;28;20299;-39
2020/12/01 03:46:28;;;;;;;2.13;1.30;;;27.20;52.60;;;;;;5058069;28;20025;-40
2020/12/01 03:48:58;;;;;;;2.33;1.30;;;27.20;52.80;;;;;;5059913;28;20463;-40
2020/12/01 03:51:28;;;;;;;2.60;1.48;;;27.20;52.70;;;;;;5056983;28;20032;-39
2020/12/01 03:53:56;;;;;;;2.73;1.20;;;27.20;52.90;;;;;;5060418;28;20028;-40
2020/12/01 03:56:23;;;;;;;1.45;1.20;;;27.30;52.90;;;;;;5056975;28;20281;-39
2020/12/01 03:58:50;;;;;;;1.27;1.17;;;27.30;52.80;;;;;;5060108;28;20090;-40
2020/12/01 04:01:17;;;;;;;1.50;1.33;;;27.40;52.60;;;;;;5059210;28;20199;-40
2020/12/01 04:03:44;;;;;;;1.70;1.10;;;27.40;52.50;;;;;;5058310;28;20028;-40
2020/12/01 04:06:12;;;;;;;1.95;1.30;;;27.40;52.70;;;;;;5059648;28;20056;-40
2020/12/01 04:08:39;;;;;;;4.85;1.75;;;27.50;52.60;;;;;;5055106;28;20028;-45
2020/12/01 04:11:06;;;;;;;2.58;1.40;;;27.50;52.50;;;;;;5058437;28;20028;-40
2020/12/01 04:13:34;;;;;;;2.55;1.55;;;27.50;52.40;;;;;;5056984;28;20098;-39
2020/12/01 04:16:01;;;;;;;2.92;1.35;;;27.60;52.60;;;;;;5059165;28;20080;-39
2020/12/01 04:18:28;;;;;;;1.83;1.50;;;27.60;52.40;;;;;;5037906;28;20622;-41
2020/12/01 04:20:55;;;;;;;2.83;1.48;;;27.60;52.90;;;;;;5060300;28;20117;-42
2020/12/01 04:23:22;;;;;;;3.80;1.67;;;27.50;52.50;;;;;;5060635;28;20555;-39
2020/12/01 04:25:49;;;;;;;1.95;1.38;;;27.60;52.10;;;;;;5069721;28;20047;-42
2020/12/01 04:28:17;;;;;;;1.95;1.52;;;27.60;52.20;;;;;;5073221;28;20034;-44
2020/12/01 04:30:44;;;;;;;1.70;1.35;;;27.60;52.20;;;;;;5064018;28;20035;-44
2020/12/01 04:33:11;;;;;;;1.55;1.40;;;27.60;52.00;;;;;;5066869;28;20044;-41
2020/12/01 04:35:38;;;;;;;1.80;1.10;;;27.60;52.10;;;;;;5056922;28;20071;-40
2020/12/01 04:38:06;;;;;;;1.98;1.50;;;27.60;52.10;;;;;;5058716;28;20043;-39
2020/12/01 04:40:38;;;;;;;2.65;1.58;;;27.50;51.70;;;;;;5073902;28;20040;-37
2020/12/01 04:43:11;;;;;;;1.88;1.23;;;27.50;51.90;;;;;;5069270;28;20055;-39
2020/12/01 04:45:41;;;;;;;3.05;1.80;;;27.40;52.00;;;;;;5058675;28;20027;-38
2020/12/01 04:48:31;;;;;;;1.42;1.30;;;27.30;52.10;;;;;;5068537;28;20505;-44
2020/12/01 04:51:30;;;;;;;3.28;2.08;;;27.30;52.00;;;;;;5051319;28;20041;-44
2020/12/01 04:54:03;;;;;;;7.15;2.63;;;27.20;52.00;;;;;;5027340;28;20086;-41
2020/12/01 04:56:45;;;;;;;3.58;1.83;;;27.30;52.60;;;;;;5067215;28;20070;-40
2020/12/01 04:59:30;;;;;;;2.45;1.75;;;27.30;52.40;;;;;;5054218;28;20111;-45
2020/12/01 05:02:34;;;;;;;1.65;1.30;;;27.20;52.30;;;;;;5062917;28;20036;-40
2020/12/01 05:05:10;;;;;;;4.95;1.63;;;27.20;52.30;;;;;;5060673;28;20025;-44
2020/12/01 05:08:12;;;;;;;3.10;1.70;;;27.20;52.50;;;;;;5064686;28;20036;-41
2020/12/01 05:10:43;;;;;;;4.43;1.20;;;27.10;52.50;;;;;;5054528;28;20269;-40
2020/12/01 05:13:30;;;;;;;;;;;27.10;52.70;;;;;;5073312;28;20065;-40
2020/12/01 05:16:16;;;;;;;2.05;1.50;;;27.20;52.80;;;;;;5058607;28;19951;-39
2020/12/01 05:18:44;;;;;;;3.83;1.50;;;27.20;52.70;;;;;;5066523;28;20039;-40
2020/12/01 05:21:11;;;;;;;2.30;1.35;;;27.20;52.60;;;;;;5056308;28;20053;-43
2020/12/01 05:23:47;;;;;;;3.50;1.70;;;27.20;53.00;;;;;;5055244;28;20032;-38
2020/12/01 05:26:17;;;;;;;4.05;1.48;;;27.20;52.70;;;;;;5054082;28;20106;-45
2020/12/01 05:28:48;;;;;;;2.47;1.50;;;27.20;52.70;;;;;;5061397;28;20129;-41
2020/12/01 05:31:17;;;;;;;3.05;1.35;;;27.20;52.80;;;;;;5058863;28;20044;-42
2020/12/01 05:33:45;;;;;;;3.25;1.60;;;27.20;52.70;;;;;;5060464;28;20249;-42
2020/12/01 05:36:37;;;;;;;4.55;1.80;;;27.20;52.60;;;;;;5063748;28;20070;-41
2020/12/01 05:39:20;;;;;;;4.63;1.58;;;27.20;52.70;;;;;;5062377;28;20032;-42
2020/12/01 05:42:18;;;;;;;3.75;2.03;;;27.20;52.90;;;;;;5059512;28;20032;-38
2020/12/01 05:44:57;;;;;;;3.50;2.00;;;27.30;53.10;;;;;;5060152;28;20024;-42
2020/12/01 05:47:43;;;;;;;5.75;1.70;;;27.30;53.00;;;;;;5061988;28;20032;-43
2020/12/01 05:50:19;;;;;;;20.23;7.63;;;27.30;52.80;;;;;;5063880;28;20040;-44
2020/12/01 05:52:52;;;;;;;23.33;9.35;;;27.30;52.80;;;;;;5072437;28;20075;-44
2020/12/01 05:55:21;;;;;;;14.55;6.88;;;27.20;52.70;;;;;;5060485;28;20416;-44
2020/12/01 05:58:08;;;;;;;11.10;4.90;;;27.20;52.50;;;;;;5064041;28;20589;-44
2020/12/01 06:01:13;;;;;;;12.60;4.68;;;27.10;52.60;;;;;;5074366;28;20032;-44
2020/12/01 06:03:58;;;;;;;12.68;5.15;;;27.10;52.50;;;;;;5064468;28;20045;-43
2020/12/01 06:06:34;;;;;;;10.25;4.82;;;27.00;52.60;;;;;;5073212;28;20042;-43
2020/12/01 06:09:17;;;;;;;8.73;3.92;;;26.90;52.70;;;;;;5077240;28;20021;-44
2020/12/01 06:11:55;;;;;;;11.45;4.15;;;26.90;52.90;;;;;;5071620;28;20035;-43
2020/12/01 06:14:36;;;;;;;7.80;3.83;;;26.80;52.80;;;;;;5067258;28;20034;-42
2020/12/01 06:17:20;;;;;;;9.35;4.03;;;26.80;53.10;;;;;;5063921;28;20025;-43
2020/12/01 06:20:02;;;;;;;9.82;3.63;;;26.80;52.90;;;;;;5065839;28;21388;-43
2020/12/01 06:22:56;;;;;;;12.23;4.00;;;26.70;53.10;;;;;;5060986;28;20051;-42
2020/12/01 06:25:59;;;;;;;9.63;4.05;;;26.70;53.30;;;;;;5076098;28;20156;-43
2020/12/01 06:28:45;;;;;;;6.63;3.83;;;26.70;53.20;;;;;;5063079;28;20081;-44
2020/12/01 06:31:50;;;;;;;12.02;3.47;;;26.70;53.40;;;;;;5065460;28;20144;-43
2020/12/01 06:34:37;;;;;;;8.23;3.53;;;26.70;53.40;;;;;;4969325;28;20034;-45
2020/12/01 06:37:22;;;;;;;8.90;4.05;;;26.70;53.20;;;;;;4968091;28;20660;-43
2020/12/01 06:39:53;;;;;;;7.15;2.88;;;26.70;53.50;;;;;;4964820;28;20035;-45
2020/12/01 06:42:27;;;;;;;14.13;3.25;;;26.70;53.40;;;;;;4963905;28;20051;-42
2020/12/01 06:45:01;;;;;;;9.82;3.70;;;26.70;53.50;;;;;;4967486;28;20504;-44
2020/12/01 06:47:33;;;;;;;9.63;4.10;;;26.80;53.70;;;;;;4965225;28;20896;-42
2020/12/01 06:50:06;;;;;;;11.10;3.05;;;26.80;53.20;;;;;;4968140;28;20038;-42
2020/12/01 06:52:33;;;;;;;8.93;3.08;;;26.70;53.20;;;;;;4970438;28;20173;-43
2020/12/01 06:55:01;;;;;;;11.50;4.30;;;26.80;53.10;;;;;;4972583;28;20100;-43
2020/12/01 06:57:36;;;;;;;10.00;3.67;;;26.70;52.80;;;;;;4964714;28;20030;-43
2020/12/01 07:00:08;;;;;;;14.63;4.20;;;26.70;52.60;;;;;;4967222;28;20600;-42
2020/12/01 07:02:36;;;;;;;;;;;26.70;52.60;;;;;;4971202;28;20055;-42
2020/12/01 07:05:06;;;;;;;12.13;2.55;;;26.70;52.20;;;;;;4968116;28;19937;-41
2020/12/01 07:07:35;;;;;;;8.10;2.63;;;26.60;52.50;;;;;;4983935;28;20037;-42
2020/12/01 07:10:25;;;;;;;7.57;2.83;;;26.50;52.30;;;;;;5065155;28;20036;-43
2020/12/01 07:13:05;;;;;;;8.93;2.47;;;26.50;52.20;;;;;;5082712;28;20369;-42
2020/12/01 07:15:46;;;;;;;7.65;3.05;;;26.50;52.50;;;;;;5061286;28;20044;-44
2020/12/01 07:18:30;;;;;;;10.82;3.25;;;26.50;52.00;;;;;;5068631;28;20032;-43
2020/12/01 07:21:15;;;;;;;9.48;3.95;;;26.50;52.30;;;;;;5071481;28;20055;-43
2020/12/01 07:24:05;;;;;;;9.30;2.97;;;26.50;52.70;;;;;;5069744;28;20075;-42
2020/12/01 07:26:42;;;;;;;9.52;2.63;;;26.40;52.30;;;;;;5061685;28;20051;-42
2020/12/01 07:29:20;;;;;;;7.32;2.30;;;26.40;52.70;;;;;;5075681;28;20032;-42
2020/12/01 07:31:48;;;;;;;5.60;2.22;;;26.50;52.50;;;;;;5072606;28;20032;-43
2020/12/01 07:34:18;;;;;;;8.32;3.20;;;26.40;52.50;;;;;;5075431;28;20020;-42
2020/12/01 07:36:55;;;;;;;5.53;2.22;;;26.40;52.10;;;;;;5068462;28;20032;-43
2020/12/01 07:39:30;;;;;;;6.72;2.40;;;26.40;51.90;;;;;;5066184;28;20542;-42
2020/12/01 07:42:01;;;;;;;5.40;2.30;;;26.40;52.00;;;;;;5063037;28;20064;-44
2020/12/01 07:44:41;;;;;;;7.32;2.53;;;26.40;51.70;;;;;;5082700;28;20181;-42
2020/12/01 07:47:21;;;;;;;8.35;3.03;;;26.40;52.00;;;;;;5057741;28;20303;-43
2020/12/01 07:50:06;;;;;;;9.52;2.50;;;26.40;51.60;;;;;;5072249;28;20630;-42
2020/12/01 07:52:42;;;;;;;10.27;2.75;;;26.40;52.00;;;;;;5067227;28;20032;-42
2020/12/01 07:55:24;;;;;;;7.47;2.17;;;26.30;51.90;;;;;;5074284;28;20154;-46
2020/12/01 07:57:59;;;;;;;10.50;2.55;;;26.40;52.00;;;;;;5067489;28;20028;-42
2020/12/01 08:00:27;;;;;;;7.97;2.58;;;26.40;51.80;;;;;;5067733;28;20037;-43
2020/12/01 08:03:15;;;;;;;7.38;2.65;;;26.40;51.90;;;;;;5061716;28;20148;-42
2020/12/01 08:05:42;;;;;;;6.75;2.30;;;26.30;51.40;;;;;;5068932;28;20046;-43
2020/12/01 08:08:23;;;;;;;7.95;2.20;;;26.40;51.30;;;;;;5065142;28;20112;-43
2020/12/01 08:10:51;;;;;;;7.80;2.78;;;26.30;51.50;;;;;;5074561;28;20028;-44
2020/12/01 08:13:21;;;;;;;5.22;2.70;;;26.40;51.20;;;;;;5061782;28;20846;-43
2020/12/01 08:15:57;;;;;;;6.55;2.03;;;26.30;51.20;;;;;;5064632;28;20041;-42
2020/12/01 08:18:24;;;;;;;4.43;1.83;;;26.40;51.10;;;;;;5062365;28;20130;-42
2020/12/01 08:20:54;;;;;;;5.90;2.15;;;26.40;51.10;;;;;;5062254;28;20029;-43
2020/12/01 08:23:26;;;;;;;4.40;2.05;;;26.30;50.70;;;;;;5062945;28;20045;-42
2020/12/01 08:26:07;;;;;;;5.15;2.47;;;26.30;50.80;;;;;;5045789;28;20097;-44
2020/12/01 08:28:47;;;;;;;9.30;2.92;;;26.40;51.00;;;;;;5060734;28;20024;-44
2020/12/01 08:31:51;;;;;;;8.43;2.58;;;26.40;50.70;;;;;;5074127;28;20047;-42
2020/12/01 08:34:34;;;;;;;6.93;1.95;;;26.30;50.60;;;;;;5058417;28;20123;-43
2020/12/01 08:37:42;;;;;;;7.80;2.58;;;26.40;50.90;;;;;;5053714;28;20040;-43
2020/12/01 08:40:27;;;;;;;6.22;2.38;;;26.30;50.50;;;;;;5054883;28;20028;-42
2020/12/01 08:43:01;;;;;;;8.90;2.53;;;26.30;50.10;;;;;;5059037;28;20054;-42
2020/12/01 08:45:43;;;;;;;4.80;2.10;;;26.20;50.10;;;;;;5061186;28;20047;-43
2020/12/01 08:48:39;;;;;;;7.20;2.45;;;26.30;50.10;;;;;;5048584;28;20060;-44
2020/12/01 08:51:18;;;;;;;5.40;1.73;;;26.30;50.00;;;;;;5056888;28;20045;-43
2020/12/01 08:53:54;;;;;;;9.05;2.55;;;26.30;50.00;;;;;;5058860;28;20051;-43
2020/12/01 08:56:43;;;;;;;10.15;3.50;;;26.30;50.10;;;;;;5063360;28;20064;-43
2020/12/01 08:59:16;;;;;;;8.65;3.10;;;26.30;50.10;;;;;;5063825;28;20059;-41
2020/12/01 09:01:43;;;;;;;6.63;2.10;;;26.30;50.10;;;;;;5070474;28;20064;-43
2020/12/01 09:04:27;;;;;;;6.82;2.28;;;26.30;50.00;;;;;;5043121;28;20086;-40
2020/12/01 09:07:05;;;;;;;10.52;2.75;;;26.40;49.90;;;;;;5066090;28;20060;-40
2020/12/01 09:09:33;;;;;;;10.30;2.55;;;26.50;49.90;;;;;;5056020;28;20028;-40
2020/12/01 09:12:26;;;;;;;5.00;2.40;;;26.50;49.70;;;;;;5060846;28;20041;-41
2020/12/01 09:18:54;;;;;;;5.88;2.30;;;26.50;49.90;;;;;;5069252;28;20033;-40
2020/12/01 09:23:36;;;;;;;4.78;1.83;;;26.40;49.70;;;;;;5057037;28;20479;-41
2020/12/01 09:26:17;;;;;;;;;;;26.40;49.80;;;;;;5063509;28;20139;-40
2020/12/01 09:28:50;;;;;;;9.57;2.78;;;26.50;49.70;;;;;;5064302;28;19938;-41
2020/12/01 09:31:18;;;;;;;7.57;2.28;;;26.50;49.60;;;;;;5054521;28;20037;-40
2020/12/01 09:33:45;;;;;;;5.25;2.10;;;26.50;49.40;;;;;;5065014;28;20051;-40
2020/12/01 09:36:23;;;;;;;6.82;2.25;;;26.50;49.70;;;;;;5063289;28;20040;-42
2020/12/01 09:38:52;;;;;;;7.60;2.60;;;26.50;49.40;;;;;;5055339;28;20051;-41
2020/12/01 09:41:23;;;;;;;7.32;2.58;;;26.50;49.20;;;;;;5069275;28;20032;-40
2020/12/01 09:44:00;;;;;;;5.80;2.08;;;26.40;49.30;;;;;;5061316;28;20063;-40
2020/12/01 09:46:41;;;;;;;5.80;1.70;;;26.40;49.20;;;;;;5054329;28;20507;-41
2020/12/01 09:49:08;;;;;;;8.40;1.98;;;26.30;49.20;;;;;;5050328;28;20696;-40
2020/12/01 09:51:35;;;;;;;4.53;2.00;;;26.30;49.30;;;;;;5041272;28;20112;-42
2020/12/01 09:54:17;;;;;;;4.13;2.08;;;26.30;49.20;;;;;;5068208;28;20032;-40
2020/12/01 09:56:57;;;;;;;6.22;2.17;;;26.30;49.10;;;;;;5072764;28;20090;-40
2020/12/01 09:59:41;;;;;;;5.60;2.45;;;26.20;49.20;;;;;;5077288;28;20032;-43
2020/12/01 10:08:07;;;;;;;5.53;1.88;;;26.30;49.00;;;;;;5055883;28;20029;-40
2020/12/01 10:11:04;;;;;;;6.55;2.47;;;26.20;49.30;;;;;;5067686;28;20039;-43
2020/12/01 10:16:37;;;;;;;5.65;2.00;;;26.20;49.00;;;;;;5058604;28;20039;-44
2020/12/01 10:22:55;;;;;;;3.75;1.80;;;26.10;49.10;;;;;;5061588;28;20055;-42
2020/12/01 10:37:05;;;;;;;10.17;2.47;;;26.10;49.30;;;;;;5074592;28;20027;-42
2020/12/01 10:39:32;;;;;;;5.75;1.65;;;26.10;49.00;;;;;;5058823;28;20055;-42
2020/12/01 10:41:59;;;;;;;7.50;2.17;;;26.00;49.20;;;;;;5063348;28;20087;-41
2020/12/01 10:44:26;;;;;;;4.55;1.58;;;26.00;49.00;;;;;;5072584;28;20028;-42
2020/12/01 10:46:53;;;;;;;5.20;1.90;;;26.00;48.80;;;;;;5065708;28;20031;-42
2020/12/01 10:49:20;;;;;;;4.15;2.10;;;26.00;49.30;;;;;;5072717;28;20252;-41
2020/12/01 10:51:51;;;;;;;5.00;1.73;;;25.90;49.10;;;;;;5069660;28;20028;-41
2020/12/01 10:54:18;;;;;;;5.65;1.55;;;25.90;49.10;;;;;;5069156;28;20036;-42
2020/12/01 10:56:49;;;;;;;8.63;2.17;;;25.80;49.20;;;;;;5082147;28;20044;-41
2020/12/01 10:59:18;;;;;;;5.47;1.70;;;25.80;48.90;;;;;;5038459;28;20031;-41
2020/12/01 11:01:45;;;;;;;3.67;2.13;;;25.80;49.20;;;;;;5053602;28;20047;-41
2020/12/01 11:04:12;;;;;;;3.90;1.65;;;25.90;49.10;;;;;;5061800;28;20036;-41
2020/12/01 11:06:40;;;;;;;4.65;1.73;;;25.80;49.00;;;;;;5064737;28;20142;-41
2020/12/01 11:09:09;;;;;;;6.85;2.00;;;25.80;49.00;;;;;;5066199;28;20043;-46
2020/12/01 11:11:37;;;;;;;4.10;1.58;;;25.70;49.10;;;;;;5054975;28;20025;-41
2020/12/01 11:14:06;;;;;;;8.30;2.45;;;25.70;49.00;;;;;;5048860;28;20021;-42
2020/12/01 11:16:33;;;;;;;3.50;1.92;;;25.70;49.40;;;;;;5060947;28;20079;-44
2020/12/01 11:19:00;;;;;;;4.57;1.92;;;25.70;49.20;;;;;;5058624;28;20523;-41
2020/12/01 11:21:27;;;;;;;3.05;1.73;;;25.70;49.20;;;;;;5054322;28;20033;-42
2020/12/01 11:23:54;;;;;;;4.25;1.77;;;25.70;49.00;;;;;;5058308;28;20035;-44
2020/12/01 11:26:22;;;;;;;5.50;1.95;;;25.70;49.30;;;;;;5040931;28;20036;-41
2020/12/01 11:28:50;;;;;;;4.30;2.08;;;25.60;49.20;;;;;;5052112;28;20826;-43
2020/12/01 11:31:20;;;;;;;3.50;1.88;;;25.70;49.20;;;;;;5044850;28;20511;-44
2020/12/01 11:34:08;;;;;;;6.80;1.70;;;25.60;48.90;;;;;;5050389;28;20043;-42
2020/12/01 11:36:36;;;;;;;4.88;1.65;;;25.50;49.30;;;;;;5052656;28;20104;-42
2020/12/01 11:39:10;;;;;;;4.82;1.52;;;25.60;49.00;;;;;;5047269;28;20472;-41
2020/12/01 11:41:37;;;;;;;4.68;1.63;;;25.60;49.20;;;;;;5053987;28;20095;-43
2020/12/01 11:44:05;;;;;;;5.00;1.60;;;25.60;49.00;;;;;;5052707;28;20079;-42
2020/12/01 11:46:33;;;;;;;4.80;1.73;;;25.50;49.00;;;;;;5054900;28;20116;-41
2020/12/01 11:49:03;;;;;;;4.20;1.70;;;25.50;49.00;;;;;;5055663;28;20033;-42
2020/12/01 11:51:33;;;;;;;4.30;1.77;;;25.40;48.70;;;;;;5050666;28;20130;-45
2020/12/01 11:54:00;;;;;;;7.78;2.67;;;25.40;49.20;;;;;;5077730;28;20036;-42
2020/12/01 11:56:27;;;;;;;4.40;1.67;;;25.40;49.10;;;;;;5060923;28;20550;-41
2020/12/01 11:58:54;;;;;;;4.00;1.70;;;25.40;49.00;;;;;;5070335;28;20052;-42
2020/12/01 12:01:21;;;;;;;7.97;1.88;;;25.40;48.90;;;;;;5061228;28;20036;-42
2020/12/01 12:03:48;;;;;;;4.45;2.50;;;25.40;48.90;;;;;;5063183;28;20185;-41
2020/12/01 12:06:16;;;;;;;5.03;2.13;;;25.30;49.00;;;;;;5064661;28;20074;-41
2020/12/01 12:08:44;;;;;;;4.85;1.50;;;25.40;49.00;;;;;;5064600;28;20039;-41
2020/12/01 12:11:12;;;;;;;3.75;1.88;;;25.30;48.70;;;;;;5069616;28;20036;-41
2020/12/01 12:13:39;;;;;;;4.47;1.58;;;25.30;48.90;;;;;;5065513;28;20182;-42
2020/12/01 12:16:06;;;;;;;3.35;1.75;;;25.30;48.90;;;;;;5070263;28;20028;-41
2020/12/01 12:18:33;;;;;;;3.67;2.05;;;25.30;48.80;;;;;;5069531;28;20059;-42
2020/12/01 12:21:00;;;;;;;8.57;2.10;;;25.30;48.80;;;;;;5062990;28;20048;-41
2020/12/01 12:23:27;;;;;;;6.15;2.03;;;25.30;49.00;;;;;;5074207;28;20094;-41
2020/12/01 12:25:54;;;;;;;3.00;1.70;;;25.30;48.90;;;;;;5069877;28;20494;-41
2020/12/01 12:28:21;;;;;;;7.18;2.47;;;25.20;48.80;;;;;;5058807;28;20032;-42
2020/12/01 12:30:48;;;;;;;4.38;1.52;;;25.20;48.70;;;;;;5063326;28;20032;-42
2020/12/01 12:33:15;;;;;;;3.83;1.50;;;25.20;48.80;;;;;;5055113;28;20123;-41
2020/12/01 12:35:42;;;;;;;7.50;1.90;;;25.20;49.00;;;;;;5076439;28;20081;-41
2020/12/01 12:38:09;;;;;;;6.22;1.77;;;25.20;48.90;;;;;;5062252;28;20028;-41
2020/12/01 12:40:36;;;;;;;6.15;1.70;;;25.20;49.50;;;;;;5051911;28;20532;-41
2020/12/01 12:43:04;;;;;;;5.55;1.75;;;25.10;48.70;;;;;;5041624;28;20040;-42
2020/12/01 12:45:31;;;;;;;3.15;1.77;;;25.20;48.70;;;;;;5072709;28;20036;-41
2020/12/01 12:47:59;;;;;;;4.65;1.80;;;25.10;48.80;;;;;;5070054;28;20036;-41
2020/12/01 12:50:27;;;;;;;4.50;1.60;;;25.10;48.90;;;;;;5064916;28;20040;-42
2020/12/01 12:52:54;;;;;;;5.30;2.00;;;25.10;48.70;;;;;;5062365;28;20047;-42
2020/12/01 12:55:21;;;;;;;5.47;1.77;;;25.10;48.70;;;;;;5074346;28;20035;-41
2020/12/01 12:57:48;;;;;;;3.63;1.27;;;25.10;48.70;;;;;;5065262;28;20032;-42
2020/12/01 13:00:15;;;;;;;4.82;1.65;;;25.10;48.70;;;;;;5065073;28;20135;-44
2020/12/01 13:02:43;;;;;;;4.32;1.45;;;25.10;48.70;;;;;;5058039;28;20091;-41
2020/12/01 13:05:10;;;;;;;2.83;1.20;;;25.10;48.60;;;;;;5080528;28;20143;-41
2020/12/01 13:07:37;;;;;;;3.33;1.63;;;25.00;48.50;;;;;;5067948;28;20021;-41
2020/12/01 13:10:05;;;;;;;4.30;1.50;;;25.00;48.50;;;;;;5070897;28;20162;-41
2020/12/01 13:12:32;;;;;;;2.60;1.45;;;25.00;48.70;;;;;;5079664;28;20185;-41
2020/12/01 13:14:59;;;;;;;4.00;1.58;;;25.00;48.60;;;;;;5066140;28;20017;-41
2020/12/01 13:17:26;;;;;;;4.18;1.80;;;25.00;48.80;;;;;;5063580;28;20029;-43
2020/12/01 13:19:53;;;;;;;5.35;1.75;;;25.00;48.80;;;;;;5059323;28;20534;-41
2020/12/01 13:22:20;;;;;;;5.03;1.60;;;25.00;48.70;;;;;;5060764;28;20075;-41
2020/12/01 13:24:48;;;;;;;4.50;1.55;;;25.00;48.70;;;;;;5044381;28;20035;-46
2020/12/01 13:27:15;;;;;;;4.22;1.77;;;25.00;48.90;;;;;;5038127;28;20033;-44
2020/12/01 13:29:42;;;;;;;2.50;1.10;;;25.00;49.00;;;;;;5055405;28;20036;-39
2020/12/01 13:32:09;;;;;;;4.70;1.40;;;25.10;49.40;;;;;;5059349;28;20111;-44
2020/12/01 13:34:37;;;;;;;4.97;1.50;;;25.20;49.10;;;;;;5054697;28;20052;-38
2020/12/01 13:37:04;;;;;;;4.43;1.63;;;25.20;49.10;;;;;;5055833;28;20125;-41
2020/12/01 13:39:31;;;;;;;2.00;1.20;;;25.30;49.00;;;;;;5054987;28;20052;-37
2020/12/01 13:41:58;;;;;;;4.35;1.35;;;25.30;49.10;;;;;;5058540;28;20102;-40
2020/12/01 13:44:25;;;;;;;4.50;1.63;;;25.30;49.10;;;;;;5056618;28;20511;-38